Time;durP1;ratioP1;P1;durP2;ratioP2;P2;SDS_P1;SDS_P2;PMS_P1;PMS_P2;Temp;Humidity;BMP_temperature;BMP_pressure;BME280_temperature;BME280_humidity;BME280_pressure;Samples;Min_cycle;Max_cycle;Signal;HPM_P1;HPM_P2
2021/06/29 00:00:42;;;;;;;;;;;15.10;99.90;;;;;;5095017;28;19924;-71
2021/06/29 00:03:09;;;;;;;;;;;15.20;99.90;;;;;;5094679;28;20263;-71
2021/06/29 00:05:37;;;;;;;;;;;15.20;99.90;;;;;;5094641;28;19934;-71
2021/06/29 00:08:05;;;;;;;;;;;15.10;99.90;;;;;;5095011;28;19925;-71
2021/06/29 00:10:32;;;;;;;;;;;15.20;99.90;;;;;;5094929;28;19992;-71
2021/06/29 00:12:59;;;;;;;;;;;15.20;99.90;;;;;;5094839;28;20248;-71
2021/06/29 00:15:27;;;;;;;;;;;15.20;99.90;;;;;;5094407;28;19924;-71
2021/06/29 00:17:55;;;;;;;;;;;15.20;99.90;;;;;;5094680;28;20272;-71
2021/06/29 00:20:22;;;;;;;;;;;15.10;99.90;;;;;;5094509;28;19924;-71
2021/06/29 00:22:49;;;;;;;;;;;15.10;99.90;;;;;;5095039;28;19924;-71
2021/06/29 00:25:17;;;;;;;;;;;15.10;99.90;;;;;;5098397;28;19946;-71
2021/06/29 00:27:45;;;;;;;;;;;15.10;99.90;;;;;;5098363;28;19943;-69
2021/06/29 00:30:13;;;;;;;;;;;15.10;99.90;;;;;;5098404;28;19923;-73
2021/06/29 00:32:40;;;;;;;;;;;15.10;99.90;;;;;;5098124;28;19934;-73
2021/06/29 00:35:09;;;;;;;;;;;15.10;99.90;;;;;;5097944;28;20023;-73
2021/06/29 00:37:36;;;;;;;;;;;15.10;99.90;;;;;;5098193;28;19938;-73
2021/06/29 00:40:03;;;;;;;;;;;15.10;99.90;;;;;;5098122;28;19967;-73
2021/06/29 00:42:30;;;;;;;;;;;15.10;99.90;;;;;;5097964;28;20023;-73
2021/06/29 00:44:56;;;;;;;;;;;15.10;99.90;;;;;;5097738;28;20015;-73
2021/06/29 00:47:23;;;;;;;;;;;15.10;99.90;;;;;;5097747;28;20378;-73
2021/06/29 00:49:50;;;;;;;;;;;15.10;99.90;;;;;;5097777;28;19924;-73
2021/06/29 00:52:18;;;;;;;;;;;15.10;99.90;;;;;;5097814;28;19928;-73
2021/06/29 00:54:45;;;;;;;;;;;15.10;99.90;;;;;;5097582;28;19934;-73
2021/06/29 00:57:12;;;;;;;;;;;15.10;99.90;;;;;;5097781;28;19924;-73
2021/06/29 00:59:39;;;;;;;;;;;15.10;99.90;;;;;;5097629;28;19924;-73
2021/06/29 01:02:06;;;;;;;;;;;15.10;99.90;;;;;;5097581;28;19934;-73
2021/06/29 01:04:33;;;;;;;;;;;15.10;99.90;;;;;;5097490;28;20336;-73
2021/06/29 01:07:00;;;;;;;;;;;15.10;99.90;;;;;;5097352;28;19937;-73
2021/06/29 01:09:28;;;;;;;;;;;15.10;99.90;;;;;;5097601;28;19924;-73
2021/06/29 01:11:55;;;;;;;;;;;15.10;99.90;;;;;;5097372;28;19930;-73
2021/06/29 01:14:22;;;;;;;;;;;15.10;99.90;;;;;;5097300;28;19924;-73
2021/06/29 01:16:49;;;;;;;;;;;15.10;99.90;;;;;;5096932;28;19931;-73
2021/06/29 01:19:19;;;;;;;;;;;15.10;99.90;;;;;;5097057;28;19925;-73
2021/06/29 01:21:50;;;;;;;;;;;15.10;99.90;;;;;;5097422;28;19924;-73
2021/06/29 01:24:19;;;;;;;;;;;15.10;99.90;;;;;;5097412;28;19924;-73
2021/06/29 01:26:49;;;;;;;;;;;15.10;99.90;;;;;;5097338;28;20252;-73
2021/06/29 01:29:17;;;;;;;;;;;15.10;99.90;;;;;;5096969;28;20264;-73
2021/06/29 01:31:43;;;;;;;;;;;15.10;99.90;;;;;;5096996;28;19989;-73
2021/06/29 01:34:10;;;;;;;;;;;15.10;99.90;;;;;;5097162;28;19928;-73
2021/06/29 01:36:38;;;;;;;;;;;15.10;99.90;;;;;;5097001;28;19924;-73
2021/06/29 01:39:06;;;;;;;;;;;15.10;99.90;;;;;;5096928;28;19986;-74
2021/06/29 01:41:33;;;;;;;;;;;15.00;99.90;;;;;;5096704;28;19934;-73
2021/06/29 01:44:04;;;;;;;;;;;15.00;99.90;;;;;;5096704;28;19924;-73
2021/06/29 01:46:33;;;;;;;;;;;15.00;99.90;;;;;;5096997;28;19924;-73
2021/06/29 01:49:00;;;;;;;;;;;15.00;99.90;;;;;;5096588;28;19978;-73
2021/06/29 01:51:27;;;;;;;;;;;15.00;99.90;;;;;;5096530;28;19924;-73
2021/06/29 01:53:54;;;;;;;;;;;15.00;99.90;;;;;;5096430;28;19924;-73
2021/06/29 01:56:27;;;;;;;;;;;15.00;99.90;;;;;;5096471;28;19935;-73
2021/06/29 01:58:56;;;;;;;;;;;15.00;99.90;;;;;;5096475;28;20438;-73
2021/06/29 02:01:23;;;;;;;;;;;15.00;99.90;;;;;;5096500;28;19924;-74
2021/06/29 02:03:50;;;;;;;;;;;15.00;99.90;;;;;;5096508;28;19924;-73
2021/06/29 02:06:17;;;;;;;;;;;15.00;99.90;;;;;;5096409;28;19931;-74
2021/06/29 02:08:44;;;;;;;;;;;15.00;99.90;;;;;;5096295;28;19924;-74
2021/06/29 02:11:10;;;;;;;;;;;15.00;99.90;;;;;;5096363;28;19924;-73
2021/06/29 02:13:39;;;;;;;;;;;15.00;99.90;;;;;;5096254;28;19938;-73
2021/06/29 02:16:06;;;;;;;;;;;15.00;99.90;;;;;;5095861;28;19928;-74
2021/06/29 02:18:32;;;;;;;;;;;15.00;99.90;;;;;;5096059;28;19924;-74
2021/06/29 02:20:59;;;;;;;;;;;14.90;99.90;;;;;;5095903;28;19924;-73
2021/06/29 02:23:26;;;;;;;;;;;14.90;99.90;;;;;;5095914;28;20339;-73
2021/06/29 02:25:53;;;;;;;;;;;14.90;99.90;;;;;;5095954;28;19938;-74
2021/06/29 02:28:20;;;;;;;;;;;14.90;99.90;;;;;;5095865;28;19924;-74
2021/06/29 02:30:48;;;;;;;;;;;14.90;99.90;;;;;;5095817;28;20012;-73
2021/06/29 02:33:15;;;;;;;;;;;14.90;99.90;;;;;;5095966;28;19924;-74
2021/06/29 02:35:42;;;;;;;;;;;14.90;99.90;;;;;;5095764;28;20263;-74
2021/06/29 02:38:09;;;;;;;;;;;14.90;99.90;;;;;;5095619;28;19928;-74
2021/06/29 02:40:35;;;;;;;;;;;14.90;99.90;;;;;;5095545;28;19928;-74
2021/06/29 02:43:02;;;;;;;;;;;14.80;99.90;;;;;;5095660;28;19924;-73
2021/06/29 02:45:29;;;;;;;;;;;14.80;99.90;;;;;;5095393;28;20031;-74
2021/06/29 02:47:58;;;;;;;;;;;14.80;99.90;;;;;;5095419;28;19924;-74
2021/06/29 02:50:25;;;;;;;;;;;14.80;99.90;;;;;;5095524;28;19924;-74
2021/06/29 02:52:52;;;;;;;;;;;14.80;99.90;;;;;;5095448;28;19924;-74
2021/06/29 02:55:19;;;;;;;;;;;14.70;99.90;;;;;;5095692;28;19932;-74
2021/06/29 02:57:45;;;;;;;;;;;14.80;99.90;;;;;;5095693;28;19925;-74
2021/06/29 03:00:13;;;;;;;;;;;14.80;99.90;;;;;;5095331;28;19931;-74
2021/06/29 03:02:40;;;;;;;;;;;14.80;99.90;;;;;;5095494;28;19950;-74
2021/06/29 03:05:09;;;;;;;;;;;14.80;99.90;;;;;;5095375;28;20272;-74
2021/06/29 03:07:36;;;;;;;;;;;14.80;99.90;;;;;;5095291;28;20279;-74
2021/06/29 03:10:03;;;;;;;;;;;14.80;99.90;;;;;;5095216;28;19924;-74
2021/06/29 03:12:30;;;;;;;;;;;14.80;99.90;;;;;;5095386;28;19935;-74
2021/06/29 03:14:58;;;;;;;;;;;14.80;99.90;;;;;;5095148;28;19931;-74
2021/06/29 03:17:25;;;;;;;;;;;14.80;99.90;;;;;;5095415;28;19924;-74
2021/06/29 03:19:52;;;;;;;;;;;14.80;99.90;;;;;;5095251;28;19935;-74
2021/06/29 03:22:20;;;;;;;;;;;14.70;99.90;;;;;;5095055;28;19928;-74
2021/06/29 03:24:47;;;;;;;;;;;14.70;99.90;;;;;;5095293;28;19924;-74
2021/06/29 03:27:14;;;;;;;;;;;14.70;99.90;;;;;;5095101;28;19930;-74
2021/06/29 03:29:41;;;;;;;;;;;14.70;99.90;;;;;;5095195;28;19924;-74
2021/06/29 03:32:08;;;;;;;;;;;14.70;99.90;;;;;;5095178;28;20007;-74
2021/06/29 03:34:35;;;;;;;;;;;14.70;99.90;;;;;;5094947;28;19928;-74
2021/06/29 03:37:03;;;;;;;;;;;14.60;99.90;;;;;;5095022;28;20268;-74
2021/06/29 03:39:31;;;;;;;;;;;14.60;99.90;;;;;;5094893;28;19928;-74
2021/06/29 03:41:58;;;;;;;;;;;14.60;99.90;;;;;;5094859;28;20382;-74
2021/06/29 03:44:25;;;;;;;;;;;14.60;99.90;;;;;;5094892;28;19924;-74
2021/06/29 03:46:51;;;;;;;;;;;14.70;99.90;;;;;;5094896;28;19930;-74
2021/06/29 03:49:18;;;;;;;;;;;14.70;99.90;;;;;;5094901;28;19924;-74
2021/06/29 03:51:45;;;;;;;;;;;14.60;99.90;;;;;;5095154;28;19924;-74
2021/06/29 03:54:12;;;;;;;;;;;14.60;99.90;;;;;;5095129;28;19924;-74
2021/06/29 03:56:40;;;;;;;;;;;14.60;99.90;;;;;;5094854;28;20356;-74
2021/06/29 03:59:08;;;;;;;;;;;14.60;99.90;;;;;;5097263;28;19934;-73
2021/06/29 04:01:34;;;;;;;;;;;14.50;99.90;;;;;;5098694;28;19924;-74
2021/06/29 04:04:01;;;;;;;;;;;14.60;99.90;;;;;;5098646;28;19923;-74
2021/06/29 04:06:29;;;;;;;;;;;14.60;99.90;;;;;;5099172;28;19924;-74
2021/06/29 04:08:56;;;;;;;;;;;14.60;99.90;;;;;;5098626;28;19934;-74
2021/06/29 04:11:23;;;;;;;;;;;14.60;99.90;;;;;;5098489;28;19934;-74
2021/06/29 04:13:51;;;;;;;;;;;14.60;99.90;;;;;;5098438;28;19938;-74
2021/06/29 04:16:18;;;;;;;;;;;14.60;99.90;;;;;;5098262;28;19924;-74
2021/06/29 04:18:45;;;;;;;;;;;14.60;99.90;;;;;;5098614;28;19924;-74
2021/06/29 04:21:11;;;;;;;;;;;14.70;99.90;;;;;;5098594;28;19931;-74
2021/06/29 04:23:39;;;;;;;;;;;14.70;99.90;;;;;;5098420;28;19924;-74
2021/06/29 04:26:05;;;;;;;;;;;14.70;99.90;;;;;;5098394;28;20326;-74
2021/06/29 04:28:32;;;;;;;;;;;14.70;99.90;;;;;;5098326;28;19930;-73
2021/06/29 04:31:01;;;;;;;;;;;14.70;99.90;;;;;;5098234;28;20395;-74
2021/06/29 04:33:27;;;;;;;;;;;14.70;99.90;;;;;;5098075;28;20011;-74
2021/06/29 04:35:54;;;;;;;;;;;14.70;99.90;;;;;;5098190;28;19924;-74
2021/06/29 04:38:21;;;;;;;;;;;14.80;99.90;;;;;;5098289;28;20054;-74
2021/06/29 04:40:48;;;;;;;;;;;14.80;99.90;;;;;;5098201;28;19924;-74
2021/06/29 04:43:15;;;;;;;;;;;14.80;99.90;;;;;;5098105;28;20001;-74
2021/06/29 04:45:42;;;;;;;;;;;14.80;99.90;;;;;;5098109;28;19928;-74
2021/06/29 04:48:10;;;;;;;;;;;14.80;99.90;;;;;;5097959;28;19924;-74
2021/06/29 04:50:38;;;;;;;;;;;14.80;99.90;;;;;;5098058;28;19924;-74
2021/06/29 04:53:05;;;;;;;;;;;14.80;99.90;;;;;;5097966;28;19942;-74
2021/06/29 04:55:33;;;;;;;;;;;14.80;99.90;;;;;;5097888;28;19935;-74
2021/06/29 04:58:00;;;;;;;;;;;14.80;99.90;;;;;;5097861;28;20323;-74
2021/06/29 05:00:27;;;;;;;;;;;14.80;99.90;;;;;;5097663;28;19924;-74
2021/06/29 05:02:53;;;;;;;;;;;14.80;99.90;;;;;;5097530;28;19931;-74
2021/06/29 05:05:22;;;;;;;;;;;14.80;99.90;;;;;;5097661;28;19924;-74
2021/06/29 05:07:49;;;;;;;;;;;14.80;99.90;;;;;;5097690;28;19950;-74
2021/06/29 05:10:15;;;;;;;;;;;14.80;99.90;;;;;;5097226;28;19931;-74
2021/06/29 05:12:42;;;;;;;;;;;14.80;99.90;;;;;;5097367;28;19924;-74
2021/06/29 05:15:09;;;;;;;;;;;14.80;99.90;;;;;;5097202;28;19934;-73
2021/06/29 05:17:36;;;;;;;;;;;14.80;99.90;;;;;;5097323;28;19924;-74
2021/06/29 05:20:03;;;;;;;;;;;14.80;99.90;;;;;;5097264;28;19924;-74
2021/06/29 05:22:32;;;;;;;;;;;14.80;99.90;;;;;;5097301;28;19946;-73
2021/06/29 05:25:00;;;;;;;;;;;14.80;99.90;;;;;;5097091;28;19928;-73
2021/06/29 05:27:27;;;;;;;;;;;14.80;99.90;;;;;;5097112;28;19924;-74
2021/06/29 05:29:54;;;;;;;;;;;14.80;99.90;;;;;;5097005;28;19958;-74
2021/06/29 05:32:21;;;;;;;;;;;14.80;99.90;;;;;;5096984;28;20256;-73
2021/06/29 05:34:48;;;;;;;;;;;14.80;99.90;;;;;;5096872;28;19924;-73
2021/06/29 05:37:14;;;;;;;;;;;14.80;99.90;;;;;;5097015;28;19934;-73
2021/06/29 05:39:43;;;;;;;;;;;14.80;99.90;;;;;;5096988;28;19938;-73
2021/06/29 05:42:10;;;;;;;;;;;14.80;99.90;;;;;;5096844;28;20355;-73
2021/06/29 05:44:37;;;;;;;;;;;14.80;99.90;;;;;;5096719;28;19931;-73
2021/06/29 05:47:07;;;;;;;;;;;14.80;99.90;;;;;;5096716;28;19935;-73
2021/06/29 05:49:34;;;;;;;;;;;14.90;99.90;;;;;;5096729;28;19935;-73
2021/06/29 05:52:00;;;;;;;;;;;14.90;99.90;;;;;;5096787;28;19924;-73
2021/06/29 05:54:27;;;;;;;;;;;14.80;99.90;;;;;;5096631;28;19934;-73
2021/06/29 05:56:56;;;;;;;;;;;14.90;99.90;;;;;;5096552;28;19924;-73
2021/06/29 05:59:22;;;;;;;;;;;14.90;99.90;;;;;;5096684;28;19924;-73
2021/06/29 06:01:51;;;;;;;;;;;14.90;99.90;;;;;;5096549;28;19924;-73
2021/06/29 06:04:18;;;;;;;;;;;14.90;99.90;;;;;;5096365;28;20018;-71
2021/06/29 06:06:45;;;;;;;;;;;14.90;99.90;;;;;;5096300;28;19924;-73
2021/06/29 06:09:11;;;;;;;;;;;14.90;99.90;;;;;;5096299;28;19931;-73
2021/06/29 06:11:38;;;;;;;;;;;14.90;99.90;;;;;;5096315;28;19923;-73
2021/06/29 06:14:07;;;;;;;;;;;14.90;99.90;;;;;;5096484;28;19938;-73
2021/06/29 06:16:33;;;;;;;;;;;15.00;99.90;;;;;;5095995;28;19924;-73
2021/06/29 06:19:00;;;;;;;;;;;14.90;99.90;;;;;;5096259;28;19925;-73
2021/06/29 06:21:27;;;;;;;;;;;15.00;99.90;;;;;;5095374;28;20271;-73
2021/06/29 06:23:54;;;;;;;;;;;15.00;99.90;;;;;;5096066;28;19931;-73
2021/06/29 06:26:21;;;;;;;;;;;15.00;99.90;;;;;;5095957;28;19924;-73
2021/06/29 06:28:48;;;;;;;;;;;15.00;99.90;;;;;;5096073;28;19924;-73
2021/06/29 06:31:16;;;;;;;;;;;15.10;99.90;;;;;;5096088;28;19924;-73
2021/06/29 06:33:43;;;;;;;;;;;15.10;99.90;;;;;;5095921;28;19938;-73
2021/06/29 06:36:10;;;;;;;;;;;15.20;99.90;;;;;;5095954;28;19930;-73
2021/06/29 06:38:36;;;;;;;;;;;15.20;99.90;;;;;;5095695;28;20340;-71
2021/06/29 06:41:03;;;;;;;;;;;15.20;99.90;;;;;;5095517;28;19934;-73
2021/06/29 06:43:30;;;;;;;;;;;15.30;99.90;;;;;;5095746;28;19942;-73
2021/06/29 06:45:57;;;;;;;;;;;15.30;99.90;;;;;;5095730;28;19931;-72
2021/06/29 06:48:25;;;;;;;;;;;15.30;99.90;;;;;;5095688;28;19924;-73
2021/06/29 06:50:52;;;;;;;;;;;15.40;99.90;;;;;;5095574;28;19928;-73
2021/06/29 06:53:19;;;;;;;;;;;15.40;99.90;;;;;;5095470;28;19930;-73
2021/06/29 06:55:46;;;;;;;;;;;15.50;99.90;;;;;;5095476;28;19924;-73
2021/06/29 06:58:12;;;;;;;;;;;15.60;99.90;;;;;;5095733;28;19939;-73
2021/06/29 07:00:39;;;;;;;;;;;15.60;99.90;;;;;;5095569;28;19924;-73
2021/06/29 07:03:06;;;;;;;;;;;15.60;99.90;;;;;;5095396;28;19946;-73
2021/06/29 07:05:35;;;;;;;;;;;15.70;99.90;;;;;;5095587;28;19924;-73
2021/06/29 07:08:02;;;;;;;;;;;15.80;99.90;;;;;;5095187;28;19934;-73
2021/06/29 07:10:28;;;;;;;;;;;15.90;99.90;;;;;;5095506;28;19934;-73
2021/06/29 07:12:55;;;;;;;;;;;16.00;99.90;;;;;;5095462;28;19924;-73
2021/06/29 07:15:22;;;;;;;;;;;16.10;99.90;;;;;;5095032;28;20376;-73
2021/06/29 07:17:49;;;;;;;;;;;16.20;99.90;;;;;;5095328;28;19954;-73
2021/06/29 07:20:16;;;;;;;;;;;16.30;99.90;;;;;;5095155;28;19924;-73
2021/06/29 07:22:44;;;;;;;;;;;16.40;99.90;;;;;;5095068;28;19928;-73
2021/06/29 07:25:11;;;;;;;;;;;16.40;99.90;;;;;;5095170;28;19930;-73
2021/06/29 07:27:38;;;;;;;;;;;16.50;99.90;;;;;;5095077;28;19942;-73
2021/06/29 07:30:05;;;;;;;;;;;16.60;99.90;;;;;;5095205;28;19924;-73
2021/06/29 07:32:32;;;;;;;;;;;16.70;99.90;;;;;;5096774;28;19930;-73
2021/06/29 07:34:59;;;;;;;;;;;16.70;99.90;;;;;;5099224;28;20275;-73
2021/06/29 07:37:26;;;;;;;;;;;16.90;99.90;;;;;;5099209;28;20352;-73
2021/06/29 07:39:54;;;;;;;;;;;17.00;99.90;;;;;;5099128;28;19938;-73
2021/06/29 07:42:21;;;;;;;;;;;17.30;99.90;;;;;;5099236;28;19935;-73
2021/06/29 07:44:47;;;;;;;;;;;17.60;99.90;;;;;;5099189;28;19924;-74
2021/06/29 07:47:14;;;;;;;;;;;18.00;99.90;;;;;;5099170;28;19954;-73
2021/06/29 07:49:41;;;;;;;;;;;18.70;99.90;;;;;;5098966;28;20271;-73
2021/06/29 07:52:08;;;;;;;;;;;19.40;99.90;;;;;;5098862;28;20362;-74
2021/06/29 07:54:35;;;;;;;;;;;20.20;99.90;;;;;;5098922;28;20437;-73
2021/06/29 07:57:03;;;;;;;;;;;21.90;99.90;;;;;;5098830;28;19924;-73
2021/06/29 07:59:30;;;;;;;;;;;23.10;99.90;;;;;;5098731;28;20267;-74
2021/06/29 08:01:57;;;;;;;;;;;24.00;99.90;;;;;;5098573;28;20332;-74
2021/06/29 08:04:24;;;;;;;3.90;1.40;;;24.80;99.90;;;;;;5098465;28;19934;-74
2021/06/29 08:06:51;;;;;;;6.78;3.60;;;25.40;99.90;;;;;;5098493;28;20048;-74
2021/06/29 08:09:18;;;;;;;6.70;3.63;;;26.70;99.90;;;;;;5098178;28;20129;-74
2021/06/29 08:11:45;;;;;;;8.98;4.10;;;27.70;99.90;;;;;;5098074;28;20479;-74
2021/06/29 08:14:14;;;;;;;6.35;3.90;;;26.80;98.40;;;;;;5098031;28;20098;-74
2021/06/29 08:16:43;;;;;;;9.77;4.78;;;25.70;99.90;;;;;;5097971;28;20056;-74
2021/06/29 08:19:11;;;;;;;6.65;3.38;;;25.50;99.90;;;;;;5097940;28;20063;-74
2021/06/29 08:21:38;;;;;;;4.95;3.33;;;27.20;99.90;;;;;;5097868;28;20044;-74
2021/06/29 08:24:05;;;;;;;5.18;3.50;;;28.70;99.90;;;;;;5097856;28;20058;-74
2021/06/29 08:26:33;;;;;;;7.18;3.95;;;30.60;93.50;;;;;;5098065;28;20066;-74
2021/06/29 08:29:00;;;;;;;6.68;4.20;;;31.70;81.00;;;;;;5097755;28;20054;-75
2021/06/29 08:31:28;;;;;;;8.45;3.55;;;32.30;65.30;;;;;;5097792;28;20051;-75
2021/06/29 08:33:55;;;;;;;4.80;3.13;;;32.90;65.50;;;;;;5097895;28;20056;-75
2021/06/29 08:36:22;;;;;;;4.53;3.65;;;33.30;58.30;;;;;;5097677;28;20044;-75
2021/06/29 08:38:49;;;;;;;5.50;3.47;;;32.70;56.80;;;;;;5097679;28;20471;-75
2021/06/29 08:41:17;;;;;;;4.05;3.35;;;33.10;58.90;;;;;;5097567;28;20478;-74
2021/06/29 08:43:44;;;;;;;5.10;3.20;;;33.50;55.70;;;;;;5096679;28;20048;-74
2021/06/29 08:46:11;;;;;;;3.78;3.05;;;33.20;56.40;;;;;;5097694;28;20367;-74
2021/06/29 08:48:40;;;;;;;5.30;3.40;;;32.80;55.10;;;;;;5097650;28;20058;-74
2021/06/29 08:51:07;;;;;;;4.35;3.42;;;32.00;55.70;;;;;;5097607;28;20383;-74
2021/06/29 08:53:35;;;;;;;5.28;3.50;;;30.20;56.80;;;;;;5097266;28;20121;-74
2021/06/29 08:56:02;;;;;;;4.70;3.22;;;28.20;61.10;;;;;;5097307;28;20051;-74
2021/06/29 08:58:32;;;;;;;3.72;2.50;;;26.40;75.50;;;;;;5097200;28;20135;-74
2021/06/29 09:00:59;;;;;;;5.30;2.95;;;25.10;89.80;;;;;;5097182;28;20087;-73
2021/06/29 09:03:26;;;;;;;;;;;24.10;97.00;;;;;;5097693;28;20127;-73
2021/06/29 09:05:54;;;;;;;;;;;23.40;96.50;;;;;;5097521;28;19920;-74
2021/06/29 09:08:22;;;;;;;;;;;22.90;99.10;;;;;;5097621;28;19920;-73
2021/06/29 09:11:04;;;;;;;;;;;22.50;97.40;;;;;;5097532;28;19930;-73
2021/06/29 09:13:31;;;;;;;;;;;22.10;99.70;;;;;;5097371;28;19920;-73
2021/06/29 09:15:58;;;;;;;;;;;21.90;96.40;;;;;;5097065;28;19920;-74
2021/06/29 09:18:25;;;;;;;;;;;21.70;97.50;;;;;;5097240;28;20014;-73
2021/06/29 09:20:53;;;;;;;;;;;21.60;98.20;;;;;;5097331;28;19930;-73
2021/06/29 09:23:21;;;;;;;;;;;21.40;98.00;;;;;;5097272;28;19920;-73
2021/06/29 09:25:48;;;;;;;;;;;21.10;98.90;;;;;;5097107;28;19924;-73
2021/06/29 09:28:16;;;;;;;;;;;20.90;97.30;;;;;;5097092;28;19919;-73
2021/06/29 09:30:45;;;;;;;;;;;20.80;98.90;;;;;;5097427;28;19924;-73
2021/06/29 09:33:12;;;;;;;;;;;20.60;95.50;;;;;;5097372;28;19921;-73
2021/06/29 09:35:39;;;;;;;;;;;20.50;96.90;;;;;;5096856;28;19920;-73
2021/06/29 09:38:06;;;;;;;;;;;20.30;98.50;;;;;;5096979;28;20032;-74
2021/06/29 09:40:34;;;;;;;;;;;20.30;99.90;;;;;;5096976;28;19938;-73
2021/06/29 09:43:07;;;;;;;;;;;20.30;99.20;;;;;;5096964;28;20256;-73
2021/06/29 09:45:34;;;;;;;;;;;20.10;95.40;;;;;;5096791;28;19923;-73
2021/06/29 09:48:01;;;;;;;;;;;20.10;99.90;;;;;;5096730;28;19920;-73
2021/06/29 09:50:38;;;;;;;;;;;20.00;97.60;;;;;;5096769;28;19920;-73
2021/06/29 09:53:26;;;;;;;;;;;19.90;99.30;;;;;;5096923;28;19920;-73
2021/06/29 09:55:55;;;;;;;;;;;19.90;99.80;;;;;;5090799;28;19923;-73
2021/06/29 09:58:22;;;;;;;;;;;19.80;99.90;;;;;;5096489;28;19926;-73
2021/06/29 10:00:49;;;;;;;;;;;19.80;99.90;;;;;;5096579;28;20336;-73
2021/06/29 10:03:20;;;;;;;;;;;19.80;99.90;;;;;;5096358;28;19920;-73
2021/06/29 10:05:47;;;;;;;;;;;19.80;99.90;;;;;;5096425;28;19927;-73
2021/06/29 10:08:21;;;;;;;;;;;19.90;99.90;;;;;;5096278;28;19932;-73
2021/06/29 10:10:48;;;;;;;;;;;19.80;99.90;;;;;;5096320;28;19930;-73
2021/06/29 10:13:17;;;;;;;;;;;19.80;99.90;;;;;;5096395;28;19920;-73
2021/06/29 10:15:44;;;;;;;;;;;19.80;99.90;;;;;;5095968;28;19924;-73
2021/06/29 10:18:10;;;;;;;;;;;19.80;99.90;;;;;;5095561;28;19920;-73
2021/06/29 10:20:51;;;;;;;;;;;19.80;99.90;;;;;;5075729;28;19926;-73
2021/06/29 10:23:18;;;;;;;;;;;19.80;99.90;;;;;;5075781;28;20378;-73
2021/06/29 10:25:44;;;;;;;;;;;19.80;99.90;;;;;;5075846;28;19920;-73
2021/06/29 10:28:12;;;;;;;;;;;19.80;99.90;;;;;;5075585;28;19921;-73
2021/06/29 10:30:40;;;;;;;;;;;19.80;99.90;;;;;;5075559;28;19926;-73
2021/06/29 10:33:07;;;;;;;;;;;19.80;99.90;;;;;;5075792;28;19920;-73
2021/06/29 10:35:34;;;;;;;;;;;19.70;99.90;;;;;;5075742;28;19974;-73
2021/06/29 10:38:01;;;;;;;;;;;19.60;99.90;;;;;;5075587;28;19921;-73
2021/06/29 10:40:28;;;;;;;;;;;19.50;98.70;;;;;;5075514;28;19920;-73
2021/06/29 10:42:56;;;;;;;;;;;19.50;99.90;;;;;;5075442;28;19921;-73
2021/06/29 10:45:23;;;;;;;;;;;19.50;99.90;;;;;;5075436;28;19928;-73
2021/06/29 10:47:51;;;;;;;;;;;19.50;99.90;;;;;;5075281;28;20299;-73
2021/06/29 10:50:18;;;;;;;;;;;19.40;99.20;;;;;;5074992;28;20311;-73
2021/06/29 10:52:45;;;;;;;;;;;19.40;99.90;;;;;;5074827;28;19924;-73
2021/06/29 10:55:24;;;;;;;;;;;19.40;98.70;;;;;;5075469;28;19920;-73
2021/06/29 10:57:51;;;;;;;;;;;19.50;99.60;;;;;;5063282;28;20341;-73
2021/06/29 11:00:33;;;;;;;;;;;19.50;99.40;;;;;;5055368;28;19931;-73
2021/06/29 11:03:02;;;;;;;;;;;19.60;99.90;;;;;;5054861;28;20267;-73
2021/06/29 11:05:29;;;;;;;;;;;19.70;99.90;;;;;;5055242;28;19928;-73
2021/06/29 11:08:05;;;;;;;;;;;19.70;99.90;;;;;;5054655;28;19946;-73
2021/06/29 11:10:34;;;;;;;;;;;19.80;99.90;;;;;;5055034;28;20359;-73
2021/06/29 11:13:01;;;;;;;;;;;19.80;99.60;;;;;;5055106;28;19994;-73
2021/06/29 11:15:48;;;;;;;;;;;19.90;99.90;;;;;;5054881;28;19927;-73
2021/06/29 11:18:19;;;;;;;;;;;20.00;99.80;;;;;;5054404;28;20204;-73
2021/06/29 11:20:46;;;;;;;;;;;20.00;99.90;;;;;;5054917;28;19925;-73
2021/06/29 11:23:16;;;;;;;;;;;20.00;99.90;;;;;;5054901;28;19925;-73
2021/06/29 11:25:44;;;;;;;;;;;20.10;99.90;;;;;;5055201;28;19925;-73
2021/06/29 11:28:12;;;;;;;;;;;20.10;99.90;;;;;;5055031;28;19979;-73
2021/06/29 11:30:54;;;;;;;;;;;20.10;99.90;;;;;;5054758;28;19925;-73
2021/06/29 11:33:45;;;;;;;;;;;20.20;99.90;;;;;;5054758;28;19935;-73
2021/06/29 11:36:30;;;;;;;;;;;20.20;99.90;;;;;;5054246;28;20374;-73
2021/06/29 11:38:59;;;;;;;;;;;20.30;99.90;;;;;;5054684;28;20341;-73
2021/06/29 11:41:27;;;;;;;;;;;20.30;99.90;;;;;;5054753;28;20015;-73
2021/06/29 11:43:53;;;;;;;;;;;20.30;99.90;;;;;;5054626;28;20260;-73
2021/06/29 11:46:35;;;;;;;;;;;20.30;99.90;;;;;;5054886;28;19924;-73
2021/06/29 11:49:06;;;;;;;;;;;20.30;99.90;;;;;;5055672;28;20279;-74
2021/06/29 11:51:49;;;;;;;;;;;20.30;99.90;;;;;;5054881;28;19925;-73
2021/06/29 11:54:26;;;;;;;;;;;20.30;99.90;;;;;;5054718;28;19990;-73
2021/06/29 11:56:53;;;;;;;;;;;20.40;99.90;;;;;;5054827;28;19935;-73
2021/06/29 11:59:25;;;;;;;;;;;20.50;99.90;;;;;;5055866;28;19929;-73
2021/06/29 12:01:58;;;;;;;;;;;20.50;99.90;;;;;;5074742;28;19924;-73
2021/06/29 12:04:25;;;;;;;;;;;20.60;99.90;;;;;;5074655;28;19929;-73
2021/06/29 12:06:58;;;;;;;;;;;20.60;99.90;;;;;;5074555;28;20271;-73
2021/06/29 12:09:29;;;;;;;;;;;20.60;99.90;;;;;;5074733;28;19924;-73
2021/06/29 12:12:15;;;;;;;;;;;20.70;99.90;;;;;;5074697;28;19931;-73
2021/06/29 12:14:42;;;;;;;;;;;20.70;99.90;;;;;;5074494;28;19925;-73
2021/06/29 12:17:09;;;;;;;;;;;20.70;99.90;;;;;;5073995;28;19931;-73
2021/06/29 12:19:35;;;;;;;;;;;20.80;99.90;;;;;;5075315;28;19937;-73
2021/06/29 12:22:02;;;;;;;;;;;20.80;99.90;;;;;;5077861;28;19931;-73
2021/06/29 12:24:31;;;;;;;;;;;20.80;99.90;;;;;;5077965;28;19924;-73
2021/06/29 12:26:57;;;;;;;;;;;20.80;99.90;;;;;;5077962;28;20262;-73
2021/06/29 12:29:29;;;;;;;;;;;21.00;99.90;;;;;;5078018;28;20352;-73
2021/06/29 12:31:55;;;;;;;;;;;21.10;99.90;;;;;;5077985;28;19936;-73
2021/06/29 12:34:22;;;;;;;;;;;21.20;99.90;;;;;;5078109;28;19925;-73
2021/06/29 12:36:49;;;;;;;;;;;21.30;99.90;;;;;;5078005;28;19932;-73
2021/06/29 12:39:16;;;;;;;;;;;21.20;99.90;;;;;;5077773;28;19971;-73
2021/06/29 12:41:45;;;;;;;;;;;21.20;99.90;;;;;;5077857;28;19924;-73
2021/06/29 12:44:14;;;;;;;;;;;21.20;99.90;;;;;;5077644;28;19925;-73
2021/06/29 12:46:41;;;;;;;;;;;21.40;99.90;;;;;;5078029;28;20014;-73
2021/06/29 12:49:08;;;;;;;;;;;21.50;99.90;;;;;;5077000;28;19924;-73
2021/06/29 12:51:36;;;;;;;;;;;21.60;99.90;;;;;;5077706;28;20242;-73
2021/06/29 12:54:03;;;;;;;;;;;21.70;99.90;;;;;;5077513;28;19924;-73
2021/06/29 12:56:30;;;;;;;;;;;21.70;99.80;;;;;;5077461;28;19924;-73
2021/06/29 12:58:59;;;;;;;;;;;21.70;99.30;;;;;;5077464;28;19924;-73
2021/06/29 13:01:25;;;;;;;;;;;21.80;99.90;;;;;;5076094;28;19993;-73
2021/06/29 13:03:52;;;;;;;;;;;21.80;99.60;;;;;;5077255;28;20341;-73
2021/06/29 13:06:21;;;;;;;;;;;21.80;99.90;;;;;;5077527;28;19925;-73
2021/06/29 13:08:48;;;;;;;;;;;21.90;99.90;;;;;;5077405;28;19925;-73
2021/06/29 13:11:15;;;;;;;;;;;21.90;99.90;;;;;;5077227;28;20359;-73
2021/06/29 13:13:42;;;;;;;;;;;21.90;99.90;;;;;;5077119;28;20287;-73
2021/06/29 13:16:20;;;;;;;;;;;21.90;99.90;;;;;;5077006;28;19924;-73
2021/06/29 13:18:47;;;;;;;;;;;21.80;99.10;;;;;;5077140;28;19925;-73
2021/06/29 13:21:21;;;;;;;;;;;21.80;99.90;;;;;;5077117;28;19934;-73
2021/06/29 13:23:55;;;;;;;;;;;21.80;99.90;;;;;;5076688;28;19935;-72
2021/06/29 13:26:22;;;;;;;;;;;21.90;99.90;;;;;;5076883;28;19924;-73
2021/06/29 13:28:49;;;;;;;;;;;22.10;97.20;;;;;;5076053;28;19931;-73
2021/06/29 13:31:15;;;;;;;;;;;22.20;99.90;;;;;;5076647;28;20007;-73
2021/06/29 13:33:44;;;;;;;;;;;22.20;98.40;;;;;;5076789;28;19935;-73
2021/06/29 13:36:11;;;;;;;;;;;22.20;98.20;;;;;;5076767;28;19931;-73
2021/06/29 13:38:37;;;;;;;;;;;22.20;99.90;;;;;;5076635;28;19924;-73
2021/06/29 13:41:06;;;;;;;;;;;22.10;99.20;;;;;;5076641;28;19935;-73
2021/06/29 13:43:34;;;;;;;;;;;22.10;99.10;;;;;;5076475;28;19924;-73
2021/06/29 13:46:02;;;;;;;;;;;22.10;99.40;;;;;;5076524;28;20299;-73
2021/06/29 13:48:29;;;;;;;;;;;22.20;99.90;;;;;;5076520;28;20423;-73
2021/06/29 13:50:57;;;;;;;;;;;22.20;99.50;;;;;;5076373;28;20284;-73
2021/06/29 13:53:26;;;;;;;;;;;22.30;99.90;;;;;;5076336;28;19934;-73
2021/06/29 13:55:53;;;;;;;;;;;22.20;99.90;;;;;;5076306;28;19934;-73
2021/06/29 13:58:21;;;;;;;;;;;22.20;99.90;;;;;;5076513;28;19971;-73
2021/06/29 14:00:48;;;;;;;;;;;22.10;99.90;;;;;;5076237;28;19924;-73
2021/06/29 14:03:18;;;;;;;;;;;22.10;99.90;;;;;;5076227;28;19929;-73
2021/06/29 14:05:46;;;;;;;;;;;22.10;99.90;;;;;;5076198;28;20020;-73
2021/06/29 14:08:15;;;;;;;;;;;22.10;99.90;;;;;;5076095;28;19939;-72
2021/06/29 14:10:42;;;;;;;;;;;22.00;99.90;;;;;;5076088;28;19925;-80
2021/06/29 14:13:10;;;;;;;;;;;21.90;99.90;;;;;;5076348;28;19932;-74
2021/06/29 14:15:37;;;;;;;;;;;21.90;99.90;;;;;;5075939;28;19947;-71